Time;durP1;ratioP1;P1;durP2;ratioP2;P2;SDS_P1;SDS_P2;PMS_P1;PMS_P2;Temp;Humidity;BMP_temperature;BMP_pressure;BME280_temperature;BME280_humidity;BME280_pressure;Samples;Min_cycle;Max_cycle;Signal;HPM_P1;HPM_P2
2021/10/07 00:01:50;;;;;;;65.30;28.80;;;10.90;99.90;;;;;;5094244;28;20024;-65
2021/10/07 00:04:16;;;;;;;63.90;30.30;;;10.90;99.90;;;;;;5093491;28;20057;-66
2021/10/07 00:06:42;;;;;;;69.93;30.60;;;10.80;99.90;;;;;;5094422;28;20035;-66
2021/10/07 00:09:08;;;;;;;69.70;31.60;;;10.80;99.90;;;;;;5094458;28;20045;-67
2021/10/07 00:11:35;;;;;;;52.28;27.35;;;10.70;99.90;;;;;;5094201;28;20021;-66
2021/10/07 00:14:02;;;;;;;53.85;27.75;;;10.70;99.90;;;;;;5093816;28;20028;-67
2021/10/07 00:16:27;;;;;;;54.42;28.20;;;10.70;99.90;;;;;;5093713;28;20097;-66
2021/10/07 00:18:53;;;;;;;47.22;23.98;;;10.70;99.90;;;;;;5092502;28;20466;-66
2021/10/07 00:21:19;;;;;;;51.83;26.13;;;10.60;99.90;;;;;;5094251;28;20032;-66
2021/10/07 00:24:02;;;;;;;47.08;24.38;;;10.60;99.90;;;;;;5092843;28;20478;-66
2021/10/07 00:26:28;;;;;;;49.72;25.38;;;10.60;99.90;;;;;;5093672;28;20020;-66
2021/10/07 00:28:58;;;;;;;50.35;27.25;;;10.60;99.90;;;;;;5092764;28;20036;-66
2021/10/07 00:31:26;;;;;;;54.40;27.48;;;10.60;99.90;;;;;;5094165;28;20099;-66
2021/10/07 00:34:11;;;;;;;58.55;28.88;;;10.50;99.90;;;;;;5092464;28;20024;-66
2021/10/07 00:37:21;;;;;;;55.10;26.95;;;10.50;99.90;;;;;;5093425;28;20528;-66
2021/10/07 00:39:22;;;;;;;49.33;24.25;;;10.40;99.90;;;;;;5093423;28;20036;-66
2021/10/07 00:41:48;;;;;;;53.97;25.13;;;10.30;99.90;;;;;;5092656;28;20020;-67
2021/10/07 00:44:13;;;;;;;46.58;24.20;;;10.20;99.90;;;;;;5094064;28;20031;-66
2021/10/07 00:46:58;;;;;;;52.17;24.98;;;10.20;99.90;;;;;;5094036;28;20372;-66
2021/10/07 00:49:24;;;;;;;42.42;23.02;;;10.10;99.90;;;;;;5093463;28;20444;-66
2021/10/07 00:51:51;;;;;;;48.63;25.13;;;10.10;99.90;;;;;;5093977;28;20484;-66
2021/10/07 00:54:21;;;;;;;44.00;24.08;;;10.00;99.90;;;;;;5094013;28;20025;-66
2021/10/07 00:56:48;;;;;;;49.85;24.90;;;10.00;99.90;;;;;;5093900;28;20028;-66
2021/10/07 00:59:13;;;;;;;45.63;24.20;;;10.00;99.90;;;;;;5092155;28;20020;-66
2021/10/07 01:01:39;;;;;;;46.30;24.90;;;10.00;99.90;;;;;;5093598;28;20031;-66
2021/10/07 01:04:06;;;;;;;49.60;26.00;;;10.00;99.90;;;;;;5092083;28;20023;-66
2021/10/07 01:06:32;;;;;;;55.45;26.48;;;10.00;99.90;;;;;;5093341;28;20028;-66
2021/10/07 01:08:59;;;;;;;61.03;27.23;;;10.00;99.90;;;;;;5093565;28;20380;-66
2021/10/07 01:11:25;;;;;;;86.95;34.22;;;10.00;99.90;;;;;;5093810;28;20055;-66
2021/10/07 01:13:50;;;;;;;82.70;34.38;;;10.20;99.90;;;;;;5075166;28;20055;-66
2021/10/07 01:16:17;;;;;;;79.03;34.40;;;10.30;99.90;;;;;;5093668;28;20473;-66
2021/10/07 01:18:44;;;;;;;83.05;34.28;;;10.40;99.90;;;;;;5093477;28;20016;-66
2021/10/07 01:21:13;;;;;;;79.10;33.80;;;10.40;99.90;;;;;;5093434;28;20016;-66
2021/10/07 01:23:40;;;;;;;81.70;33.25;;;10.40;99.90;;;;;;5096505;28;20016;-66
2021/10/07 01:26:08;;;;;;;80.18;34.30;;;10.40;99.90;;;;;;5097520;28;20020;-66
2021/10/07 01:28:38;;;;;;;72.10;32.63;;;10.40;99.90;;;;;;5096216;28;20054;-66
2021/10/07 01:31:05;;;;;;;87.95;35.95;;;10.40;99.90;;;;;;5097407;28;20017;-66
2021/10/07 01:33:30;;;;;;;81.60;35.22;;;10.40;99.90;;;;;;5097119;28;20377;-66
2021/10/07 01:35:56;;;;;;;81.05;35.33;;;10.50;99.90;;;;;;5096620;28;20048;-66
2021/10/07 01:38:21;;;;;;;87.03;34.42;;;10.50;99.90;;;;;;5097004;28;20031;-66
2021/10/07 01:40:47;;;;;;;90.18;36.92;;;10.50;99.90;;;;;;5096663;28;20028;-66
2021/10/07 01:43:12;;;;;;;94.15;39.17;;;10.50;99.90;;;;;;5096894;28;20032;-64
2021/10/07 01:45:38;;;;;;;88.90;38.80;;;10.60;99.90;;;;;;5096789;28;20028;-66
2021/10/07 01:48:05;;;;;;;92.88;37.30;;;10.60;99.90;;;;;;5097069;28;20028;-66
2021/10/07 01:50:30;;;;;;;90.35;38.25;;;10.60;99.90;;;;;;5095582;28;20016;-66
2021/10/07 01:52:56;;;;;;;85.75;36.60;;;10.60;99.90;;;;;;5096987;28;20386;-66
2021/10/07 01:55:22;;;;;;;84.35;37.42;;;10.60;99.90;;;;;;5095058;28;20028;-66
2021/10/07 01:57:47;;;;;;;82.75;37.10;;;10.60;99.90;;;;;;5096876;28;20027;-66
2021/10/07 02:00:13;;;;;;;94.07;38.10;;;10.60;99.90;;;;;;5096869;28;20404;-66
2021/10/07 02:02:39;;;;;;;89.78;37.35;;;10.60;99.90;;;;;;5096235;28;20020;-66
2021/10/07 02:05:06;;;;;;;95.38;36.08;;;10.50;99.90;;;;;;5096768;28;20066;-66
2021/10/07 02:07:32;;;;;;;88.15;37.92;;;10.50;99.90;;;;;;5095280;28;20469;-66
2021/10/07 02:09:57;;;;;;;94.72;39.00;;;10.50;99.90;;;;;;5096665;28;20026;-66
2021/10/07 02:12:23;;;;;;;82.57;36.30;;;10.50;99.90;;;;;;5095198;28;20020;-66
2021/10/07 02:14:48;;;;;;;97.45;37.85;;;10.50;99.90;;;;;;5096209;28;20355;-66
2021/10/07 02:17:14;;;;;;;93.53;38.20;;;10.50;99.90;;;;;;5096252;28;20373;-66
2021/10/07 02:19:39;;;;;;;102.03;39.30;;;10.50;99.90;;;;;;5096461;28;20032;-66
2021/10/07 02:22:05;;;;;;;93.55;39.90;;;10.50;99.90;;;;;;5095881;28;20028;-66
2021/10/07 02:24:31;;;;;;;91.15;37.65;;;10.40;99.90;;;;;;5094968;28;20028;-66
2021/10/07 02:26:56;;;;;;;94.85;39.50;;;10.50;99.90;;;;;;5094924;28;20028;-66
2021/10/07 02:29:22;;;;;;;95.30;39.20;;;10.40;99.90;;;;;;5096310;28;20035;-66
2021/10/07 02:31:47;;;;;;;88.78;38.08;;;10.40;99.90;;;;;;5096307;28;20549;-66
2021/10/07 02:34:13;;;;;;;89.63;37.60;;;10.40;99.90;;;;;;5095523;28;20541;-66
2021/10/07 02:36:38;;;;;;;92.15;38.15;;;10.40;99.90;;;;;;5095476;28;20040;-66
2021/10/07 02:39:04;;;;;;;88.78;38.35;;;10.40;99.90;;;;;;5096415;28;20035;-66
2021/10/07 02:41:31;;;;;;;78.13;36.13;;;10.40;99.90;;;;;;5096047;28;20517;-66
2021/10/07 02:43:57;;;;;;;75.50;35.55;;;10.40;99.90;;;;;;5094603;28;20505;-66
2021/10/07 02:46:23;;;;;;;78.07;35.40;;;10.40;99.90;;;;;;5095973;28;20020;-66
2021/10/07 02:48:48;;;;;;;73.60;33.40;;;10.50;99.90;;;;;;5095930;28;20035;-66
2021/10/07 02:51:14;;;;;;;74.22;34.05;;;10.40;99.90;;;;;;5095871;28;20370;-66
2021/10/07 02:53:40;;;;;;;72.13;33.47;;;10.50;99.90;;;;;;5095803;28;20067;-66
2021/10/07 02:56:06;;;;;;;76.55;36.20;;;10.50;99.90;;;;;;5095468;28;20024;-66
2021/10/07 02:58:33;;;;;;;82.63;36.15;;;10.40;99.90;;;;;;5095486;28;20095;-66
2021/10/07 03:00:59;;;;;;;82.75;35.58;;;10.40;99.90;;;;;;5095117;28;20017;-66
2021/10/07 03:03:25;;;;;;;92.57;39.85;;;10.50;99.90;;;;;;5095676;28;20472;-66
2021/10/07 03:05:52;;;;;;;104.15;40.55;;;10.40;99.90;;;;;;5094125;28;20024;-66
2021/10/07 03:08:17;;;;;;;106.38;41.63;;;10.40;99.90;;;;;;5094497;28;20334;-66
2021/10/07 03:10:43;;;;;;;106.22;39.63;;;10.40;99.90;;;;;;5095482;28;20050;-67
2021/10/07 03:13:09;;;;;;;118.10;42.10;;;10.40;99.90;;;;;;5093622;28;20049;-66
2021/10/07 03:15:34;;;;;;;125.30;43.88;;;10.40;99.90;;;;;;5095062;28;20043;-66
2021/10/07 03:18:00;;;;;;;119.15;43.42;;;10.30;99.90;;;;;;5095315;28;20453;-66
2021/10/07 03:20:25;;;;;;;140.27;46.72;;;10.30;99.90;;;;;;5093488;28;20034;-66
2021/10/07 03:22:51;;;;;;;135.25;46.88;;;10.20;99.90;;;;;;5095253;28;20411;-66
2021/10/07 03:25:17;;;;;;;127.47;44.17;;;10.30;99.90;;;;;;5095186;28;20533;-66
2021/10/07 03:27:42;;;;;;;136.60;45.72;;;10.30;99.90;;;;;;5094899;28;20028;-66
2021/10/07 03:30:08;;;;;;;126.60;43.15;;;10.30;99.90;;;;;;5093665;28;20032;-66
2021/10/07 03:32:34;;;;;;;137.02;43.78;;;10.30;99.90;;;;;;5095070;28;20054;-66
2021/10/07 03:34:59;;;;;;;130.55;44.15;;;10.40;99.90;;;;;;5092989;28;20127;-66
2021/10/07 03:37:25;;;;;;;128.57;45.42;;;10.40;99.90;;;;;;5093186;28;20024;-66
2021/10/07 03:39:51;;;;;;;135.00;43.20;;;10.30;99.90;;;;;;5093189;28;20027;-66
2021/10/07 03:42:16;;;;;;;125.90;43.88;;;10.30;99.90;;;;;;5094861;28;20055;-66
2021/10/07 03:44:42;;;;;;;126.18;44.42;;;10.40;99.90;;;;;;5094330;28;20031;-66
2021/10/07 03:47:08;;;;;;;127.15;42.38;;;10.40;99.90;;;;;;5094766;28;20095;-66
2021/10/07 03:49:34;;;;;;;117.28;41.67;;;10.30;99.90;;;;;;5094473;28;20048;-66
2021/10/07 03:51:59;;;;;;;125.68;43.80;;;10.30;99.90;;;;;;5094422;28;20028;-66
2021/10/07 03:54:25;;;;;;;120.32;44.20;;;10.30;99.90;;;;;;5094643;28;20115;-66
2021/10/07 03:56:50;;;;;;;130.90;45.05;;;10.40;99.90;;;;;;5093971;28;20103;-66
2021/10/07 03:59:16;;;;;;;117.93;42.70;;;10.40;99.90;;;;;;5093391;28;20111;-66
2021/10/07 04:01:41;;;;;;;121.15;43.80;;;10.30;99.90;;;;;;5094538;28;20023;-66
2021/10/07 04:04:07;;;;;;;128.98;44.75;;;10.30;99.90;;;;;;5094481;28;20127;-66
2021/10/07 04:06:33;;;;;;;117.32;43.22;;;10.30;99.90;;;;;;5094491;28;20032;-66
2021/10/07 04:08:58;;;;;;;116.85;42.33;;;10.40;99.90;;;;;;5092974;28;20081;-66
2021/10/07 04:11:24;;;;;;;115.05;42.88;;;10.30;99.90;;;;;;5094418;28;20070;-66
2021/10/07 04:13:49;;;;;;;123.85;44.03;;;10.30;99.90;;;;;;5092359;28;20031;-66
2021/10/07 04:16:15;;;;;;;127.95;46.30;;;10.30;99.90;;;;;;5092236;28;20031;-66
2021/10/07 04:18:43;;;;;;;107.10;39.85;;;10.40;99.90;;;;;;5075506;28;20036;-66
2021/10/07 04:21:09;;;;;;;104.47;40.28;;;10.40;99.90;;;;;;5094092;28;20016;-65
2021/10/07 04:23:34;;;;;;;103.22;38.92;;;10.40;99.90;;;;;;5093561;28;20024;-67
2021/10/07 04:26:00;;;;;;;112.60;40.58;;;10.30;99.90;;;;;;5094061;28;20028;-66
2021/10/07 04:28:26;;;;;;;99.68;37.72;;;10.30;99.90;;;;;;5092482;28;20427;-66
2021/10/07 04:30:51;;;;;;;99.72;37.88;;;10.30;99.90;;;;;;5075856;28;20028;-67
2021/10/07 04:33:17;;;;;;;105.93;40.20;;;10.30;99.90;;;;;;5093817;28;20495;-65
2021/10/07 04:35:43;;;;;;;104.70;40.28;;;10.30;99.90;;;;;;5093489;28;20508;-67
2021/10/07 04:38:09;;;;;;;99.45;37.00;;;10.30;99.90;;;;;;5093824;28;20028;-67
2021/10/07 04:40:36;;;;;;;97.38;37.17;;;10.30;99.90;;;;;;5094107;28;20020;-67
2021/10/07 04:43:02;;;;;;;95.55;35.85;;;10.40;99.90;;;;;;5094075;28;20016;-66
2021/10/07 04:45:28;;;;;;;94.18;36.08;;;10.30;99.90;;;;;;5092874;28;20023;-66
2021/10/07 04:47:54;;;;;;;102.88;38.75;;;10.40;99.90;;;;;;5094061;28;20474;-66
2021/10/07 04:50:20;;;;;;;97.72;37.60;;;10.40;99.90;;;;;;5093713;28;20091;-66
2021/10/07 04:52:45;;;;;;;97.20;38.25;;;10.30;99.90;;;;;;5093983;28;20488;-67
2021/10/07 04:55:11;;;;;;;99.90;38.35;;;10.40;99.90;;;;;;5076114;28;20043;-67
2021/10/07 04:57:37;;;;;;;97.10;37.08;;;10.30;99.90;;;;;;5095690;28;20027;-66
2021/10/07 05:00:05;;;;;;;97.80;37.60;;;10.40;99.90;;;;;;5098002;28;20027;-66
2021/10/07 05:02:31;;;;;;;97.88;38.58;;;10.40;99.90;;;;;;5097708;28;20105;-66
2021/10/07 05:04:56;;;;;;;86.18;35.90;;;10.40;99.90;;;;;;5097642;28;20051;-66
2021/10/07 05:07:22;;;;;;;97.40;37.83;;;10.40;99.90;;;;;;5097326;28;20048;-66
2021/10/07 05:09:47;;;;;;;95.55;39.63;;;10.40;99.90;;;;;;5097571;28;20074;-66
2021/10/07 05:12:13;;;;;;;103.40;39.28;;;10.40;99.90;;;;;;5095979;28;20030;-66
2021/10/07 05:14:39;;;;;;;105.57;40.72;;;10.40;99.90;;;;;;5097511;28;20024;-66
2021/10/07 05:17:04;;;;;;;103.68;40.13;;;10.30;99.90;;;;;;5097618;28;20029;-66
2021/10/07 05:19:30;;;;;;;100.18;40.90;;;10.40;99.90;;;;;;5097663;28;20369;-66
2021/10/07 05:21:55;;;;;;;104.82;38.55;;;10.30;99.90;;;;;;5096117;28;20020;-66
2021/10/07 05:24:21;;;;;;;109.97;41.10;;;10.40;99.90;;;;;;5097537;28;20012;-66
2021/10/07 05:26:47;;;;;;;101.85;39.22;;;10.40;99.90;;;;;;5096113;28;20366;-66
2021/10/07 05:29:12;;;;;;;98.25;39.17;;;10.40;99.90;;;;;;5097211;28;20374;-66
2021/10/07 05:31:38;;;;;;;112.35;41.65;;;10.30;99.90;;;;;;5097355;28;20039;-66
2021/10/07 05:34:03;;;;;;;112.32;41.70;;;10.30;99.90;;;;;;5096790;28;20025;-66
2021/10/07 05:36:29;;;;;;;109.47;42.40;;;10.30;99.90;;;;;;5096487;28;20055;-66
2021/10/07 05:38:55;;;;;;;106.72;42.35;;;10.30;99.90;;;;;;5097008;28;20032;-66
2021/10/07 05:41:20;;;;;;;115.68;43.92;;;10.30;99.90;;;;;;5097177;28;20457;-67
2021/10/07 05:43:46;;;;;;;127.97;44.38;;;10.30;99.90;;;;;;5097163;28;20028;-66
2021/10/07 05:46:12;;;;;;;129.48;44.30;;;10.30;99.90;;;;;;5095980;28;20062;-67
2021/10/07 05:48:38;;;;;;;119.57;45.58;;;10.30;99.90;;;;;;5097073;28;20024;-67
2021/10/07 05:51:04;;;;;;;112.13;43.92;;;10.30;99.90;;;;;;5097033;28;20462;-66
2021/10/07 05:53:29;;;;;;;116.68;44.08;;;10.20;99.90;;;;;;5096612;28;20124;-66
2021/10/07 05:55:55;;;;;;;125.15;43.35;;;10.30;99.90;;;;;;5096850;28;20028;-67
2021/10/07 05:58:20;;;;;;;112.63;42.15;;;10.20;99.90;;;;;;5096632;28;20399;-66
2021/10/07 06:00:46;;;;;;;116.40;42.30;;;10.30;99.90;;;;;;5096272;28;20066;-66
2021/10/07 06:03:12;;;;;;;106.68;42.80;;;10.30;99.90;;;;;;5095312;28;20028;-66
2021/10/07 06:05:38;;;;;;;128.38;44.53;;;10.20;99.90;;;;;;5097730;28;20052;-66
2021/10/07 06:08:05;;;;;;;114.18;41.03;;;10.20;99.90;;;;;;5095981;28;20024;-66
2021/10/07 06:10:31;;;;;;;111.65;41.90;;;10.20;99.90;;;;;;5112473;28;20039;-66
2021/10/07 06:12:57;;;;;;;109.88;41.85;;;10.20;99.90;;;;;;5116956;28;20032;-66
2021/10/07 06:15:26;;;;;;;109.43;40.88;;;10.20;99.90;;;;;;5110294;28;20055;-66
2021/10/07 06:17:51;;;;;;;105.22;40.38;;;10.20;99.90;;;;;;5104191;28;20101;-66
2021/10/07 06:20:24;;;;;;;106.00;40.22;;;10.20;99.90;;;;;;5095871;28;20379;-66
2021/10/07 06:22:50;;;;;;;111.47;41.28;;;10.20;99.90;;;;;;5100290;28;20051;-67
2021/10/07 06:25:17;;;;;;;107.88;41.88;;;10.20;99.90;;;;;;5115676;28;20488;-66
2021/10/07 06:27:42;;;;;;;108.38;40.13;;;10.20;99.90;;;;;;5103503;28;20055;-66
2021/10/07 06:30:10;;;;;;;104.22;39.83;;;10.20;99.90;;;;;;5095601;28;20056;-66
2021/10/07 06:32:36;;;;;;;96.60;38.33;;;10.20;99.90;;;;;;5104979;28;20488;-66
2021/10/07 06:35:02;;;;;;;107.72;41.33;;;10.20;99.90;;;;;;5116091;28;20529;-66
2021/10/07 06:37:27;;;;;;;101.20;40.42;;;10.20;99.90;;;;;;5106667;28;20028;-66
2021/10/07 06:39:53;;;;;;;93.50;37.10;;;10.20;99.90;;;;;;5095324;28;20073;-66
2021/10/07 06:42:18;;;;;;;91.15;37.10;;;10.20;99.90;;;;;;5099743;28;20016;-66
2021/10/07 06:44:44;;;;;;;97.15;38.30;;;10.30;99.90;;;;;;5095835;28;20073;-66
2021/10/07 06:47:09;;;;;;;94.55;37.13;;;10.30;99.90;;;;;;5081928;28;20023;-66
2021/10/07 06:49:35;;;;;;;84.55;36.50;;;10.30;99.90;;;;;;5115716;28;20023;-67
2021/10/07 06:52:03;;;;;;;97.22;37.63;;;10.30;99.90;;;;;;5112435;28;20049;-66
2021/10/07 06:54:28;;;;;;;95.80;37.78;;;10.30;99.90;;;;;;5095402;28;20073;-67
2021/10/07 06:56:54;;;;;;;90.50;37.33;;;10.40;99.90;;;;;;5103305;28;20023;-66
2021/10/07 06:59:20;;;;;;;99.93;39.22;;;10.40;99.90;;;;;;5115990;28;20027;-66
2021/10/07 07:01:45;;;;;;;95.93;38.28;;;10.40;99.90;;;;;;5108720;28;20478;-67
2021/10/07 07:04:15;;;;;;;89.35;36.20;;;10.40;99.90;;;;;;5094843;28;20027;-67
2021/10/07 07:06:42;;;;;;;98.03;38.15;;;10.40;99.90;;;;;;5099825;28;20055;-67
2021/10/07 07:09:08;;;;;;;93.97;36.35;;;10.50;99.90;;;;;;5112339;28;20039;-66
2021/10/07 07:11:34;;;;;;;97.25;38.88;;;10.50;99.90;;;;;;5111937;28;20095;-66
2021/10/07 07:14:02;;;;;;;97.28;37.78;;;10.40;99.90;;;;;;5095269;28;20062;-66
2021/10/07 07:16:28;;;;;;;102.65;40.03;;;10.50;99.90;;;;;;5096445;28;20024;-67
2021/10/07 07:18:53;;;;;;;93.93;37.13;;;10.50;99.90;;;;;;5110680;28;20092;-66
2021/10/07 07:21:20;;;;;;;99.35;38.88;;;10.50;99.90;;;;;;5102305;28;20047;-66
2021/10/07 07:23:53;;;;;;;109.88;41.78;;;10.50;99.90;;;;;;5094369;28;20020;-66
2021/10/07 07:26:18;;;;;;;107.80;41.20;;;10.60;99.90;;;;;;5094432;28;20086;-66
2021/10/07 07:28:44;;;;;;;98.53;38.78;;;10.60;99.90;;;;;;5094668;28;20055;-66
2021/10/07 07:31:10;;;;;;;100.90;39.20;;;10.60;99.90;;;;;;5097345;28;20478;-67
2021/10/07 07:33:35;;;;;;;101.15;39.83;;;10.60;99.90;;;;;;5097324;28;20078;-66
2021/10/07 07:36:01;;;;;;;105.07;44.25;;;10.60;99.90;;;;;;5094329;28;20520;-67
2021/10/07 07:38:26;;;;;;;106.70;42.40;;;10.60;99.90;;;;;;5107057;28;20031;-66
2021/10/07 07:40:52;;;;;;;94.32;37.00;;;10.60;99.90;;;;;;5113483;28;20028;-67
2021/10/07 07:43:19;;;;;;;89.85;36.08;;;10.60;99.90;;;;;;5101092;28;20054;-66
2021/10/07 07:45:47;;;;;;;83.38;35.53;;;10.70;99.90;;;;;;5092759;28;20047;-67
2021/10/07 07:48:13;;;;;;;78.65;34.53;;;10.70;99.90;;;;;;5103357;28;20020;-67
2021/10/07 07:50:38;;;;;;;82.85;35.40;;;10.70;99.90;;;;;;5113058;28;20072;-66
2021/10/07 07:53:04;;;;;;;85.97;35.10;;;10.80;99.90;;;;;;5086229;28;20032;-67
2021/10/07 07:55:29;;;;;;;90.00;36.88;;;10.80;99.90;;;;;;5093279;28;20031;-67
2021/10/07 07:57:55;;;;;;;89.13;36.45;;;10.80;99.90;;;;;;5101395;28;20032;-67
2021/10/07 08:00:20;;;;;;;89.72;35.40;;;10.80;99.90;;;;;;5114878;28;20023;-67
2021/10/07 08:02:46;;;;;;;81.15;35.08;;;10.80;99.90;;;;;;5108218;28;20099;-67
2021/10/07 08:05:12;;;;;;;81.05;33.97;;;10.90;99.90;;;;;;5094031;28;20027;-67
2021/10/07 08:07:38;;;;;;;89.80;37.30;;;10.90;99.90;;;;;;5096168;28;20034;-66
2021/10/07 08:10:03;;;;;;;86.35;34.90;;;10.80;99.90;;;;;;5114684;28;20078;-66
2021/10/07 08:12:33;;;;;;;81.60;34.42;;;10.80;99.90;;;;;;5110594;28;20032;-66
2021/10/07 08:15:00;;;;;;;87.72;35.38;;;10.80;99.90;;;;;;5093932;28;20078;-66
2021/10/07 08:17:25;;;;;;;93.25;37.35;;;10.80;99.90;;;;;;5095054;28;20089;-67
2021/10/07 08:19:51;;;;;;;89.80;36.45;;;10.80;99.90;;;;;;5113519;28;20418;-66
2021/10/07 08:22:17;;;;;;;81.13;34.60;;;10.90;99.90;;;;;;5112172;28;20116;-66
2021/10/07 08:24:42;;;;;;;69.00;32.67;;;10.90;99.90;;;;;;5104145;28;20020;-67
2021/10/07 08:27:08;;;;;;;87.05;34.63;;;10.90;99.90;;;;;;5101398;28;20031;-67
2021/10/07 08:29:33;;;;;;;71.65;30.83;;;10.90;99.90;;;;;;5092185;28;20024;-66
2021/10/07 08:31:59;;;;;;;71.32;31.45;;;11.00;99.90;;;;;;5111247;28;20028;-66
2021/10/07 08:34:25;;;;;;;72.78;31.38;;;11.00;99.90;;;;;;5114322;28;20031;-67
2021/10/07 08:36:51;;;;;;;74.45;31.55;;;11.00;99.90;;;;;;5098543;28;20055;-66
2021/10/07 08:39:17;;;;;;;71.93;30.48;;;11.10;99.90;;;;;;5097410;28;20480;-66
2021/10/07 08:41:45;;;;;;;73.32;31.27;;;11.10;99.90;;;;;;5114298;28;20020;-67
2021/10/07 08:44:12;;;;;;;78.45;33.03;;;11.00;99.90;;;;;;5109246;28;20016;-67
2021/10/07 08:46:40;;;;;;;75.68;31.95;;;11.10;99.90;;;;;;5092328;28;20028;-67
2021/10/07 08:49:07;;;;;;;72.57;31.33;;;11.20;99.90;;;;;;5094995;28;20503;-67
2021/10/07 08:51:33;;;;;;;76.60;31.83;;;11.20;99.90;;;;;;5111767;28;20058;-67
2021/10/07 08:53:58;;;;;;;81.00;31.92;;;11.20;99.90;;;;;;5111574;28;20469;-67
2021/10/07 08:56:25;;;;;;;77.40;31.73;;;11.30;99.90;;;;;;5096951;28;20453;-67
2021/10/07 08:58:51;;;;;;;76.55;31.27;;;11.30;99.90;;;;;;5093509;28;20489;-66
2021/10/07 09:01:38;;;;;;;83.82;34.38;;;11.30;99.90;;;;;;5105858;28;20076;-67
2021/10/07 09:04:26;;;;;;;80.85;34.45;;;11.30;99.90;;;;;;5076222;28;20104;-67
2021/10/07 09:06:57;;;;;;;76.53;33.63;;;11.30;99.90;;;;;;5073399;28;20095;-67
2021/10/07 09:09:23;;;;;;;86.40;35.92;;;11.40;99.90;;;;;;5075110;28;20024;-67
2021/10/07 09:11:52;;;;;;;79.45;34.47;;;11.40;99.90;;;;;;5093351;28;20393;-67
2021/10/07 09:14:23;;;;;;;69.75;32.47;;;11.60;99.90;;;;;;5092144;28;20366;-67
2021/10/07 09:16:50;;;;;;;53.08;26.15;;;11.80;99.90;;;;;;5112928;28;20110;-67
2021/10/07 09:19:31;;;;;;;61.58;28.50;;;12.00;99.90;;;;;;5113562;28;20458;-67
2021/10/07 09:22:00;;;;;;;53.63;26.67;;;12.20;99.90;;;;;;5093309;28;20502;-68
2021/10/07 09:24:30;;;;;;;51.38;27.30;;;12.50;99.90;;;;;;5113099;28;20020;-68
2021/10/07 09:27:01;;;;;;;43.53;23.63;;;13.00;99.90;;;;;;5113354;28;20023;-68
2021/10/07 09:29:56;;;;;;;39.05;21.67;;;13.60;99.90;;;;;;5091859;28;20082;-68
2021/10/07 09:32:32;;;;;;;40.95;22.83;;;13.90;99.90;;;;;;5095374;28;20058;-68
2021/10/07 09:35:02;;;;;;;40.70;20.70;;;14.20;99.90;;;;;;5113426;28;20822;-68
2021/10/07 09:40:13;;;;;;;38.58;22.23;;;14.30;99.90;;;;;;5111447;27;20410;-67
2021/10/07 09:42:50;;;;;;;39.58;22.38;;;14.30;99.90;;;;;;5111015;28;20019;-68
2021/10/07 09:45:21;;;;;;;38.55;21.98;;;14.20;99.90;;;;;;5110132;28;20030;-68
2021/10/07 09:47:49;;;;;;;39.55;21.88;;;14.30;99.90;;;;;;5111050;28;20027;-68
2021/10/07 09:50:36;;;;;;;37.67;21.27;;;14.60;99.90;;;;;;5111108;28;20493;-68
2021/10/07 09:53:17;;;;;;;38.75;22.25;;;14.90;99.90;;;;;;5109547;28;20034;-68
2021/10/07 09:55:45;;;;;;;32.42;20.50;;;15.30;99.90;;;;;;5111395;28;20024;-68
2021/10/07 09:58:17;;;;;;;34.83;20.63;;;15.90;99.90;;;;;;5110250;28;20031;-67
2021/10/07 10:00:49;;;;;;;30.60;19.00;;;16.50;99.90;;;;;;5110560;28;20426;-68
2021/10/07 10:03:15;;;;;;;26.08;18.35;;;17.00;99.90;;;;;;5110740;28;20111;-68
2021/10/07 10:05:42;;;;;;;27.27;17.60;;;17.50;99.90;;;;;;5111303;28;20034;-68
2021/10/07 10:08:11;;;;;;;24.92;18.05;;;17.10;99.90;;;;;;5110624;28;20646;-68
2021/10/07 10:10:38;;;;;;;24.60;16.83;;;17.10;99.90;;;;;;5109969;28;20028;-66
2021/10/07 10:13:04;;;;;;;22.20;15.43;;;17.90;99.90;;;;;;5109398;28;20394;-68
2021/10/07 10:15:32;;;;;;;22.48;15.25;;;18.20;99.90;;;;;;5110394;28;20039;-68
2021/10/07 10:17:57;;;;;;;21.77;14.60;;;17.60;99.90;;;;;;5110540;28;20031;-68
2021/10/07 10:20:25;;;;;;;20.80;14.30;;;17.30;99.90;;;;;;5109423;28;20123;-68
2021/10/07 10:22:56;;;;;;;21.23;15.10;;;17.50;99.90;;;;;;5109927;28;20039;-68
2021/10/07 10:25:25;;;;;;;24.33;15.82;;;17.00;99.90;;;;;;5110907;28;20020;-67
2021/10/07 10:27:54;;;;;;;23.60;15.80;;;16.80;99.90;;;;;;5110419;28;20020;-67
2021/10/07 10:30:25;;;;;;;27.50;17.05;;;16.50;99.90;;;;;;5109914;28;20031;-68
2021/10/07 10:32:51;;;;;;;28.73;18.90;;;16.00;99.90;;;;;;5110709;28;20028;-67
2021/10/07 10:35:38;;;;;;;32.72;18.98;;;15.20;99.90;;;;;;5109855;28;20530;-67
2021/10/07 10:38:11;;;;;;;31.05;18.55;;;15.00;99.90;;;;;;5109860;28;20074;-67
2021/10/07 10:40:38;;;;;;;30.13;18.27;;;15.20;99.90;;;;;;5069910;28;20032;-67
2021/10/07 10:43:26;;;;;;;29.35;17.45;;;15.40;99.90;;;;;;5069482;28;20024;-68
2021/10/07 10:51:30;;;;;;;16.88;12.35;;;15.60;99.90;;;;;;5076252;28;20426;-66
2021/10/07 10:54:09;;;;;;;18.00;12.82;;;17.90;99.90;;;;;;5077556;28;20032;-66
2021/10/07 10:56:41;;;;;;;18.20;12.85;;;18.50;99.90;;;;;;5050635;28;20415;-66
2021/10/07 10:59:24;;;;;;;18.80;12.98;;;17.70;99.90;;;;;;5058712;28;20017;-66
2021/10/07 11:04:56;;;;;;;18.40;12.90;;;16.70;99.90;;;;;;5091585;28;20409;-68
2021/10/07 11:07:29;;;;;;;21.10;13.73;;;16.60;99.90;;;;;;5089867;28;20020;-68
2021/10/07 11:10:07;;;;;;;19.67;13.50;;;16.30;99.90;;;;;;5090888;28;20020;-68
2021/10/07 11:12:45;;;;;;;21.42;14.00;;;16.20;99.90;;;;;;5089499;28;20031;-67
2021/10/07 11:15:12;;;;;;;21.33;14.05;;;15.90;99.90;;;;;;5091049;28;20408;-67
2021/10/07 11:17:40;;;;;;;18.10;13.60;;;16.10;99.90;;;;;;5091012;28;20032;-68
2021/10/07 11:20:07;;;;;;;23.17;13.15;;;16.20;99.90;;;;;;5089351;28;20027;-67
2021/10/07 11:22:33;;;;;;;17.65;11.73;;;16.30;99.90;;;;;;5091025;28;20027;-67
2021/10/07 11:24:59;;;;;;;16.48;11.23;;;16.40;99.90;;;;;;5091095;28;20024;-67
2021/10/07 11:27:39;;;;;;;16.83;12.38;;;16.40;99.90;;;;;;5092742;28;20028;-67
2021/10/07 11:30:12;;;;;;;17.60;11.45;;;16.40;99.90;;;;;;5100270;28;20023;-67
2021/10/07 11:32:40;;;;;;;18.08;12.60;;;16.80;99.90;;;;;;5098885;28;20028;-67
2021/10/07 11:35:09;;;;;;;16.42;11.70;;;16.80;99.90;;;;;;5093815;28;20028;-68
2021/10/07 11:37:56;;;;;;;19.95;12.68;;;16.80;99.90;;;;;;5090479;28;20445;-67
2021/10/07 11:40:28;;;;;;;17.80;11.77;;;17.00;99.90;;;;;;5090343;28;20017;-67
2021/10/07 11:42:56;;;;;;;13.63;9.82;;;17.10;99.90;;;;;;5090360;28;20021;-67
2021/10/07 11:45:27;;;;;;;14.40;10.05;;;17.20;99.90;;;;;;5094030;28;20016;-67
2021/10/07 11:47:53;;;;;;;15.27;9.82;;;17.40;99.90;;;;;;5090307;28;20056;-67
2021/10/07 11:50:22;;;;;;;12.20;8.73;;;17.50;99.90;;;;;;5094013;28;20082;-67
2021/10/07 11:52:49;;;;;;;12.73;9.32;;;17.30;99.90;;;;;;5090049;28;20024;-68
2021/10/07 11:55:17;;;;;;;13.85;9.63;;;17.20;99.90;;;;;;5091312;28;20020;-68
2021/10/07 11:57:59;;;;;;;13.05;9.68;;;17.40;99.90;;;;;;5101386;28;20027;-68
2021/10/07 12:00:38;;;;;;;7.72;6.68;;;17.80;99.90;;;;;;5089853;28;20020;-68
2021/10/07 12:03:09;;;;;;;9.13;6.68;;;18.00;99.90;;;;;;5089741;28;20040;-68
2021/10/07 12:05:34;;;;;;;9.65;7.45;;;17.80;99.90;;;;;;5089324;28;20023;-67
2021/10/07 12:08:05;;;;;;;9.35;7.20;;;17.40;99.90;;;;;;5092653;28;20028;-67
2021/10/07 12:10:33;;;;;;;11.02;7.90;;;17.20;99.90;;;;;;5090127;28;20031;-67
2021/10/07 12:13:08;;;;;;;10.25;7.70;;;16.90;99.90;;;;;;5089489;28;20024;-67
2021/10/07 12:15:35;;;;;;;9.68;7.80;;;16.60;99.90;;;;;;5079989;28;20046;-67
2021/10/07 12:18:01;;;;;;;11.88;7.93;;;16.40;99.90;;;;;;5075186;28;20024;-67
2021/10/07 12:20:26;;;;;;;9.38;7.82;;;16.20;99.90;;;;;;5074647;28;20079;-68
2021/10/07 12:22:58;;;;;;;11.85;7.70;;;16.50;99.90;;;;;;5075936;28;20029;-67
2021/10/07 12:25:24;;;;;;;8.85;6.93;;;17.10;99.90;;;;;;5075932;28;20012;-67
2021/10/07 12:27:49;;;;;;;10.95;8.13;;;17.50;99.90;;;;;;5076114;28;20024;-67
2021/10/07 12:30:15;;;;;;;10.35;8.50;;;17.90;99.90;;;;;;5076205;28;20020;-67
2021/10/07 12:32:41;;;;;;;9.90;7.97;;;18.10;99.90;;;;;;5076327;28;20020;-67
2021/10/07 12:35:06;;;;;;;8.80;7.03;;;18.30;99.90;;;;;;5076042;28;20028;-67
2021/10/07 12:37:33;;;;;;;6.35;5.07;;;17.90;99.90;;;;;;5076102;28;20020;-67
2021/10/07 12:39:59;;;;;;;6.70;5.80;;;17.60;99.90;;;;;;5074899;28;20016;-67